Terminal Aerodrome Forecast
Issued by NWS

Home | Current Version | Previous Version | Text Only | Print | Product List | Glossary On
Versions: 1 2 3 4 5 6 7 8 9 10 11 12 13 14 15 16 17 18 19 20 21 22 23 24
000
FTUS42 KTBW 302215 AAB
TAFPGD
TAF AMD
KPGD 302215Z 3022/3118 12009KT P6SM VCTS SCT030CB BKN250
      TEMPO 3022/3023 VRB12G21KT 1SM TSRA BKN020CB
     FM310100 10006KT P6SM VCSH SCT020 BKN050
     FM310600 VRB05KT P6SM FEW010 SCT020 BKN100
     FM311400 17005KT P6SM VCTS SCT025CB BKN250=

USA.gov is the U.S. government's official web portal to all federal, state and local government web resources and services.